Time;durP1;ratioP1;P1;durP2;ratioP2;P2;SDS_P1;SDS_P2;PMS_P1;PMS_P2;Temp;Humidity;BMP_temperature;BMP_pressure;BME280_temperature;BME280_humidity;BME280_pressure;Samples;Min_cycle;Max_cycle;Signal;HPM_P1;HPM_P2
2021/03/11 00:04:18;;;;;;;18.07;10.13;;;;;;;3.90;91.69;97839.81;3755391;79;44092;-19
2021/03/11 00:09:23;;;;;;;17.97;10.73;;;;;;;3.87;91.50;97823.61;3758245;78;43184;-19
2021/03/11 00:14:29;;;;;;;18.10;10.53;;;;;;;3.88;92.08;97817.30;3695694;79;43523;-18
2021/03/11 00:19:36;;;;;;;17.97;10.40;;;;;;;3.90;91.52;97810.03;3659753;79;44092;-19
2021/03/11 00:24:42;;;;;;;15.90;10.13;;;;;;;3.95;91.11;97812.28;3755781;79;43384;-19
2021/03/11 00:29:47;;;;;;;19.53;10.27;;;;;;;4.01;90.87;97798.41;3664307;79;44071;-19
2021/03/11 00:34:55;;;;;;;19.50;9.90;;;;;;;4.04;90.12;97786.66;3637928;81;43284;-18
2021/03/11 00:40:01;;;;;;;16.60;9.43;;;;;;;4.09;88.28;97775.94;3626394;81;43176;-19
2021/03/11 00:45:09;;;;;;;18.17;10.03;;;;;;;4.11;87.92;97775.31;3757521;79;44069;-19
2021/03/11 00:50:18;;;;;;;18.50;9.90;;;;;;;4.15;89.41;97769.22;3692581;79;44066;-19
2021/03/11 00:55:24;;;;;;;17.73;10.13;;;;;;;4.18;89.44;97759.58;3748505;78;43455;-19
2021/03/11 01:00:30;;;;;;;16.93;9.73;;;;;;;4.19;87.82;97767.94;3748882;77;43649;-18
2021/03/11 01:05:38;;;;;;;17.73;10.13;;;;;;;4.21;87.72;97747.83;3747202;78;26391;-18
2021/03/11 01:10:46;;;;;;;15.47;9.13;;;;;;;4.19;88.29;97735.95;3744920;78;26269;-19
2021/03/11 01:15:51;;;;;;;17.53;9.97;;;;;;;4.18;88.68;97727.59;3751150;78;44077;-18
2021/03/11 01:20:58;;;;;;;17.07;9.77;;;;;;;4.21;89.51;97703.33;3749385;77;43803;-20
2021/03/11 01:26:04;;;;;;;17.30;9.63;;;;;;;4.24;88.67;97695.53;3747025;78;44036;-18
2021/03/11 01:31:11;;;;;;;17.87;9.60;;;;;;;4.25;89.78;97681.23;3749003;77;43983;-18
2021/03/11 01:36:17;;;;;;;16.60;10.03;;;;;;;4.29;88.68;97659.98;3748415;78;44010;-18
2021/03/11 01:41:23;;;;;;;17.87;9.67;;;;;;;4.36;89.04;97647.76;3746899;77;44088;-18
2021/03/11 01:46:30;;;;;;;16.60;9.23;;;;;;;4.38;87.77;97632.46;3750644;78;43991;-18
2021/03/11 01:51:36;;;;;;;16.30;9.73;;;;;;;4.50;85.73;97608.30;3707303;79;42817;-18
2021/03/11 01:56:44;;;;;;;15.70;9.10;;;;;;;4.55;83.98;97588.72;3720371;79;44022;-18
2021/03/11 02:01:50;;;;;;;16.23;9.50;;;;;;;4.65;84.37;97569.53;3662525;80;44095;-18
2021/03/11 02:06:59;;;;;;;18.00;9.13;;;;;;;4.68;83.44;97557.72;3695144;79;26358;-19
2021/03/11 02:12:09;;;;;;;15.70;9.47;;;;;;;4.67;84.66;97546.22;3664063;80;43679;-19
2021/03/11 02:17:18;;;;;;;17.37;9.80;;;;;;;4.70;83.20;97525.92;3714504;79;44082;-18
2021/03/11 02:22:28;;;;;;;16.23;9.53;;;;;;;4.74;84.17;97509.95;3723466;78;43150;-19
2021/03/11 02:27:51;;;;;;;17.20;10.10;;;;;;;4.78;83.22;97490.48;3718373;79;43996;-19
2021/03/11 02:32:59;;;;;;;17.53;10.13;;;;;;;4.83;85.05;97464.20;3722476;78;44193;-19
2021/03/11 02:38:09;;;;;;;16.80;10.00;;;;;;;4.80;82.54;97455.66;3723539;79;44062;-19
2021/03/11 02:43:16;;;;;;;16.90;10.20;;;;;;;4.84;83.89;97441.88;3726092;78;43621;-20
2021/03/11 02:48:23;;;;;;;17.80;10.10;;;;;;;4.91;84.56;97434.93;3724241;79;44164;-18
2021/03/11 02:53:30;;;;;;;18.17;10.27;;;;;;;4.87;83.10;97425.56;3720190;78;43987;-19
2021/03/11 02:58:38;;;;;;;18.40;10.23;;;;;;;4.96;83.76;97421.64;3722714;79;43459;-18
2021/03/11 03:03:45;;;;;;;21.33;10.70;;;;;;;4.99;83.16;97400.82;3720818;78;43706;-18
2021/03/11 03:08:53;;;;;;;17.17;10.07;;;;;;;5.03;83.56;97375.99;3721891;79;42785;-19
2021/03/11 03:13:59;;;;;;;20.30;10.73;;;;;;;5.07;84.56;97360.02;3723968;78;44060;-18
2021/03/11 03:19:06;;;;;;;17.30;9.73;;;;;;;5.06;85.09;97331.66;3718460;79;44157;-18
2021/03/11 03:24:12;;;;;;;18.73;9.53;;;;;;;5.06;84.58;97315.63;3659032;81;44949;-18
2021/03/11 03:29:18;;;;;;;17.27;10.13;;;;;;;5.13;85.35;97319.87;3711852;79;44490;-18
2021/03/11 03:34:24;;;;;;;17.30;9.43;;;;;;;5.17;86.73;97315.39;3755484;79;43435;-18
2021/03/11 03:39:31;;;;;;;16.43;9.00;;;;;;;5.24;89.23;97300.42;3663927;80;43353;-18
2021/03/11 03:44:40;;;;;;;17.67;10.07;;;;;;;5.28;90.87;97281.42;3662075;81;44012;-19
2021/03/11 03:49:46;;;;;;;16.97;9.03;;;;;;;5.27;91.27;97264.58;3758349;78;44211;-18
2021/03/11 03:54:54;;;;;;;16.40;9.40;;;;;;;5.29;94.37;97240.38;3752167;79;44145;-19
2021/03/11 04:00:00;;;;;;;16.47;9.27;;;;;;;5.22;98.20;97250.84;3755836;79;44038;-19
2021/03/11 04:05:11;;;;;;;14.30;8.80;;;;;;;5.15;100.00;97231.94;3755890;79;26302;-19
2021/03/11 04:10:17;;;;;;;15.17;8.77;;;;;;;5.14;100.00;97215.58;3752252;78;43684;-25
2021/03/11 04:15:24;;;;;;;14.70;8.83;;;;;;;5.06;100.00;97216.36;3757770;79;43410;-19
2021/03/11 04:20:31;;;;;;;15.10;8.83;;;;;;;5.01;100.00;97213.81;3758262;78;44196;-18
2021/03/11 04:25:37;;;;;;;14.40;8.57;;;;;;;5.01;100.00;97191.13;3755275;79;43507;-19
2021/03/11 04:30:45;;;;;;;14.63;8.40;;;;;;;5.09;100.00;97176.01;3753711;78;43373;-19
2021/03/11 04:35:52;;;;;;;13.50;7.67;;;;;;;5.23;100.00;97173.76;3752453;79;43084;-19
2021/03/11 04:40:59;;;;;;;14.70;8.87;;;;;;;5.30;100.00;97166.78;3751734;79;43662;-19
2021/03/11 04:46:06;;;;;;;12.43;7.33;;;;;;;5.35;100.00;97163.66;3755100;79;43442;-19
2021/03/11 04:51:16;;;;;;;12.03;7.07;;;;;;;5.46;99.33;97169.20;3754010;78;44007;-19
2021/03/11 04:56:23;;;;;;;15.90;8.50;;;;;;;5.50;98.99;97174.06;3749490;78;43429;-19
2021/03/11 05:01:32;;;;;;;11.47;7.00;;;;;;;5.54;99.27;97158.54;3750015;77;43455;-19
2021/03/11 05:06:38;;;;;;;12.37;7.27;;;;;;;5.64;98.11;97145.06;3749076;78;43976;-20
2021/03/11 05:11:44;;;;;;;11.93;7.13;;;;;;;5.66;99.62;97127.86;3746146;77;43382;-20
2021/03/11 05:16:50;;;;;;;13.47;7.73;;;;;;;5.80;97.60;97106.86;3746540;78;44008;-20
2021/03/11 05:21:56;;;;;;;11.83;7.50;;;;;;;5.84;96.85;97090.84;3747648;77;43085;-20
2021/03/11 05:27:02;;;;;;;13.27;7.57;;;;;;;5.96;94.76;97082.84;3749489;78;44044;-20
2021/03/11 05:32:09;;;;;;;11.23;7.60;;;;;;;6.04;94.00;97082.06;3745459;77;44026;-20
2021/03/11 05:37:15;;;;;;;13.03;7.90;;;;;;;6.14;92.05;97070.70;3750283;78;42865;-20
2021/03/11 05:42:22;;;;;;;11.83;7.00;;;;;;;6.16;92.24;97078.06;3748459;77;44742;-20
2021/03/11 05:47:28;;;;;;;11.33;7.03;;;;;;;6.22;91.07;97065.00;3739678;78;43276;-20
2021/03/11 05:52:35;;;;;;;10.97;6.80;;;;;;;6.20;91.31;97054.97;3728623;78;43669;-20
2021/03/11 05:57:42;;;;;;;11.67;7.40;;;;;;;6.20;90.74;97039.78;3746206;79;43263;-19
2021/03/11 06:02:50;;;;;;;10.63;6.90;;;;;;;6.26;91.06;97040.95;3726428;79;44214;-19
2021/03/11 06:07:56;;;;;;;11.57;7.60;;;;;;;6.24;90.22;97021.03;3704243;79;44028;-19
2021/03/11 06:13:04;;;;;;;10.53;6.63;;;;;;;6.24;91.29;97006.84;3676970;79;44039;-19
2021/03/11 06:18:12;;;;;;;10.83;6.70;;;;;;;6.24;91.98;97016.20;3745320;79;44147;-19
2021/03/11 06:23:18;;;;;;;10.03;6.47;;;;;;;6.22;93.03;97008.84;3716340;79;43266;-19
2021/03/11 06:29:01;;;;;;;12.37;7.03;;;;;;;6.17;94.88;97003.49;3706004;79;44659;-19
2021/03/11 06:34:19;;;;;;;9.97;6.53;;;;;;;6.18;97.12;97001.67;3725163;79;43949;-19
2021/03/11 06:39:26;;;;;;;13.20;7.43;;;;;;;6.13;98.09;96991.48;3685262;79;43435;-19
2021/03/11 06:44:40;;;;;;;11.17;6.90;;;;;;;6.13;99.83;96997.31;3729705;79;43685;-20
2021/03/11 06:49:58;;;;;;;12.87;6.93;;;;;;;6.12;100.00;96981.79;3694879;79;43991;-20
2021/03/11 06:55:08;;;;;;;13.07;7.33;;;;;;;6.13;100.00;96983.46;3717846;78;44031;-20
2021/03/11 07:00:20;;;;;;;10.20;7.40;;;;;;;6.22;100.00;96987.45;3687875;79;44048;-20
2021/03/11 07:05:28;;;;;;;11.50;7.13;;;;;;;6.26;100.00;96987.46;3726001;79;43421;-19
2021/03/11 07:10:35;;;;;;;10.93;7.37;;;;;;;6.29;100.00;96992.48;3696564;79;75374;-19
2021/03/11 07:15:42;;;;;;;12.73;8.10;;;;;;;6.32;100.00;97005.48;3712070;79;43705;-19
2021/03/11 07:20:48;;;;;;;10.93;7.63;;;;;;;6.33;100.00;96996.47;3693184;79;43682;-19
2021/03/11 07:25:55;;;;;;;10.77;7.93;;;;;;;6.41;100.00;97000.97;3717149;79;44443;-19
2021/03/11 07:31:03;;;;;;;12.47;8.00;;;;;;;6.42;100.00;96989.27;3714202;79;44108;-20
2021/03/11 07:36:10;;;;;;;11.90;7.23;;;;;;;6.45;100.00;96999.12;3677103;79;43717;-20
2021/03/11 07:41:18;;;;;;;11.40;7.13;;;;;;;6.50;100.00;96985.23;3717007;79;44131;-19
2021/03/11 07:46:24;;;;;;;10.57;7.13;;;;;;;6.54;100.00;96991.91;3732790;79;75734;-20
2021/03/11 07:51:33;;;;;;;12.13;7.53;;;;;;;6.62;100.00;96965.13;3697796;79;44052;-20
2021/03/11 07:56:41;;;;;;;13.00;7.67;;;;;;;6.77;100.00;96974.60;3707954;79;43680;-19
2021/03/11 08:01:52;;;;;;;11.73;7.60;;;;;;;6.88;100.00;96962.70;3660571;80;43353;-19
2021/03/11 08:07:30;;;;;;;12.70;8.20;;;;;;;6.98;100.00;96946.91;3660373;81;44071;-20
2021/03/11 08:12:38;;;;;;;11.33;7.12;;;;;;;7.04;99.96;96915.44;3667005;79;44472;-21
2021/03/11 08:17:46;;;;;;;11.33;7.37;;;;;;;7.12;99.36;96950.69;3725091;79;43384;-21
2021/03/11 08:23:06;;;;;;;12.15;7.70;;;;;;;7.29;99.11;96961.66;3660402;80;43081;-19
2021/03/11 08:28:37;;;;;;;10.97;7.07;;;;;;;7.39;98.36;96950.72;3723424;79;44487;-19
2021/03/11 08:33:49;;;;;;;10.63;6.97;;;;;;;7.43;97.27;96973.44;3713952;79;43997;-19
2021/03/11 08:38:55;;;;;;;9.60;6.40;;;;;;;7.52;98.20;96962.17;3656786;81;43905;-19
2021/03/11 08:44:03;;;;;;;12.30;6.60;;;;;;;7.60;97.87;96980.88;3758298;79;44115;-19
2021/03/11 08:49:08;;;;;;;9.20;6.50;;;;;;;7.62;96.78;96978.84;3756513;78;44050;-19
2021/03/11 08:54:24;;;;;;;9.28;5.90;;;;;;;7.73;96.95;96980.30;3701592;79;44425;-20
2021/03/11 08:59:48;;;;;;;10.48;6.05;;;;;;;7.78;95.66;96969.03;3748485;77;43848;-20
2021/03/11 09:04:55;;;;;;;9.10;6.55;;;;;;;7.83;96.30;96969.31;3751322;78;43681;-21
2021/03/11 09:10:01;;;;;;;9.28;6.25;;;;;;;7.79;97.71;96959.98;3745175;77;43165;-18
2021/03/11 09:15:10;;;;;;;8.03;5.93;;;;;;;7.77;97.32;96944.05;3749908;78;69039;-19
2021/03/11 09:20:17;;;;;;;9.07;6.23;;;;;;;7.78;98.52;96932.32;3747170;77;42990;-20
2021/03/11 09:25:24;;;;;;;9.00;6.17;;;;;;;7.76;98.28;96926.82;3750122;78;69122;-20
2021/03/11 09:30:32;;;;;;;11.43;6.07;;;;;;;7.78;98.64;96916.75;3749995;77;43770;-20
2021/03/11 09:35:39;;;;;;;9.68;5.85;;;;;;;7.75;99.41;96894.33;3725319;78;43309;-20
2021/03/11 09:40:48;;;;;;;9.67;6.20;;;;;;;7.78;100.00;96888.61;3725902;79;69137;-20
2021/03/11 09:45:57;;;;;;;10.23;6.70;;;;;;;7.73;100.00;96881.61;3675348;79;43303;-20
2021/03/11 09:51:07;;;;;;;8.60;6.08;;;;;;;7.71;100.00;96882.62;3752365;78;43426;-20
2021/03/11 09:56:16;;;;;;;9.07;6.20;;;;;;;7.78;100.00;96869.84;3674878;80;43183;-20
2021/03/11 10:01:27;;;;;;;9.03;6.27;;;;;;;7.78;100.00;96873.34;3745021;77;43397;-20
2021/03/11 10:06:33;;;;;;;7.90;5.77;;;;;;;7.91;100.00;96855.80;3751885;78;44048;-20
2021/03/11 10:11:45;;;;;;;9.95;6.28;;;;;;;7.89;100.00;96818.95;3749933;77;43309;-19
2021/03/11 10:16:52;;;;;;;12.10;5.80;;;;;;;7.97;99.57;96807.63;3748702;78;43726;-19
2021/03/11 10:22:01;;;;;;;8.17;5.80;;;;;;;8.09;98.47;96787.91;3750262;77;43361;-20
2021/03/11 10:27:22;;;;;;;7.37;5.13;;;;;;;8.33;98.79;96829.69;3752970;78;44070;-19
2021/03/11 10:32:28;;;;;;;8.23;5.20;;;;;;;8.45;97.40;96841.28;3673941;79;69512;-19
2021/03/11 10:37:35;;;;;;;8.10;5.50;;;;;;;8.59;97.58;96833.76;3751669;78;44034;-20
2021/03/11 10:42:44;;;;;;;7.60;4.60;;;;;;;8.68;96.36;96821.56;3748871;77;43998;-19
2021/03/11 10:48:01;;;;;;;7.90;4.80;;;;;;;8.75;97.19;96802.35;3752219;78;43460;-20
2021/03/11 10:53:08;;;;;;;7.72;4.83;;;;;;;8.76;96.95;96812.07;3753654;78;44039;-19
2021/03/11 10:58:22;;;;;;;5.80;4.12;;;;;;;8.71;98.23;96823.88;3755329;79;43282;-20
2021/03/11 11:03:31;;;;;;;6.65;4.45;;;;;;;8.73;98.95;96823.19;3722965;79;44088;-19
2021/03/11 11:08:38;;;;;;;5.62;3.87;;;;;;;8.83;99.12;96815.66;3703756;79;43365;-19
2021/03/11 11:13:44;;;;;;;5.67;3.52;;;;;;;9.40;97.42;96782.19;3662470;80;44058;-20
2021/03/11 11:18:50;;;;;;;5.60;3.55;;;;;;;9.84;93.06;96773.51;3696913;79;44082;-20
2021/03/11 11:23:56;;;;;;;4.92;3.55;;;;;;;10.40;91.72;96730.87;3719765;79;43701;-20
2021/03/11 11:29:05;;;;;;;4.15;2.90;;;;;;;10.40;92.35;96732.22;3720492;79;43720;-20
2021/03/11 11:34:12;;;;;;;3.40;2.65;;;;;;;10.48;92.28;96730.69;3758821;79;43337;-19
2021/03/11 11:39:18;;;;;;;4.85;3.02;;;;;;;10.56;93.74;96724.79;3756714;77;43627;-20
2021/03/11 11:44:24;;;;;;;3.70;2.75;;;;;;;10.77;91.38;96715.20;3758591;79;44072;-19
2021/03/11 11:49:30;;;;;;;3.12;2.47;;;;;;;11.20;88.85;96706.44;3756336;78;44094;-19
2021/03/11 11:54:36;;;;;;;2.95;2.10;;;;;;;11.17;90.29;96675.85;3760016;79;45323;-20
2021/03/11 11:59:42;;;;;;;3.17;2.22;;;;;;;11.25;89.30;96674.28;3759025;77;44038;-20
2021/03/11 12:04:50;;;;;;;3.50;2.02;;;;;;;11.36;88.26;96662.86;3755212;78;44070;-20
2021/03/11 12:09:58;;;;;;;3.87;2.05;;;;;;;11.23;90.32;96657.52;3754039;79;44066;-20
2021/03/11 12:15:07;;;;;;;4.30;1.90;;;;;;;11.11;91.46;96645.17;3755502;78;43777;-21
2021/03/11 12:20:15;;;;;;;3.67;2.22;;;;;;;11.08;92.99;96645.58;3757667;79;43425;-20
2021/03/11 12:25:21;;;;;;;2.25;1.80;;;;;;;10.90;94.44;96636.78;3753672;78;43687;-20
2021/03/11 12:30:29;;;;;;;2.25;1.82;;;;;;;10.79;94.85;96629.63;3758405;77;44053;-20
2021/03/11 12:35:35;;;;;;;3.22;2.00;;;;;;;10.86;97.25;96613.48;3757571;78;44052;-21
2021/03/11 12:40:41;;;;;;;2.40;2.20;;;;;;;10.91;96.76;96611.50;3758634;77;44055;-20
2021/03/11 12:45:47;;;;;;;3.33;1.80;;;;;;;10.69;98.45;96628.41;3688455;79;43413;-20
2021/03/11 12:50:54;;;;;;;3.22;2.08;;;;;;;10.69;99.37;96629.22;3760300;78;44045;-20
2021/03/11 12:56:00;;;;;;;2.98;1.87;;;;;;;10.70;99.56;96613.91;3738040;78;43019;-21
2021/03/11 13:01:07;;;;;;;2.58;1.80;;;;;;;10.78;99.19;96591.61;3632092;81;44108;-20
2021/03/11 13:06:13;;;;;;;1.47;1.17;;;;;;;11.08;98.08;96580.91;3763813;78;43675;-20
2021/03/11 13:11:21;;;;;;;2.25;1.70;;;;;;;10.98;98.51;96592.14;3764988;79;43320;-21
2021/03/11 13:16:27;;;;;;;2.33;1.45;;;;;;;10.86;99.14;96575.77;3757507;78;44056;-20
2021/03/11 13:21:33;;;;;;;1.72;1.10;;;;;;;10.87;100.00;96575.27;3757792;79;42922;-20
2021/03/11 13:26:40;;;;;;;1.00;0.90;;;;;;;11.21;99.51;96563.91;3630408;81;44061;-19
2021/03/11 13:31:47;;;;;;;0.98;0.70;;;;;;;11.33;97.88;96552.78;3764685;77;43474;-20
2021/03/11 13:36:53;;;;;;;1.32;0.75;;;;;;;11.36;97.75;96552.86;3763008;78;43444;-20
2021/03/11 13:41:59;;;;;;;0.82;0.60;;;;;;;11.35;97.04;96569.54;3764688;79;44010;-20
2021/03/11 13:47:05;;;;;;;1.07;0.60;;;;;;;11.37;96.04;96541.86;3754641;78;43336;-20
2021/03/11 13:52:12;;;;;;;1.25;0.85;;;;;;;11.35;95.74;96568.20;3690853;80;43477;-21
2021/03/11 13:57:19;;;;;;;0.75;0.70;;;;;;;11.33;97.37;96554.13;3760520;78;44058;-21
2021/03/11 14:02:25;;;;;;;0.62;0.62;;;;;;;11.43;96.67;96521.30;3756964;77;43710;-20
2021/03/11 14:07:31;;;;;;;1.12;0.78;;;;;;;12.19;92.13;96530.98;3690718;79;43791;-20
2021/03/11 14:12:38;;;;;;;0.80;0.80;;;;;;;12.39;88.50;96549.75;3762635;79;42936;-21
2021/03/11 14:17:44;;;;;;;0.88;0.80;;;;;;;12.46;88.61;96540.25;3761740;78;44215;-22
2021/03/11 14:22:50;;;;;;;1.60;0.80;;;;;;;12.26;88.93;96529.59;3756769;77;44061;-21
2021/03/11 14:27:56;;;;;;;0.90;0.80;;;;;;;12.39;90.78;96509.78;3686867;79;43264;-21
2021/03/11 14:33:02;;;;;;;0.70;0.60;;;;;;;12.36;89.24;96508.33;3748450;77;43381;-21
2021/03/11 14:38:08;;;;;;;0.80;0.70;;;;;;;12.43;88.19;96496.13;3763232;78;44118;-21
2021/03/11 14:43:14;;;;;;;0.60;0.50;;;;;;;12.54;86.33;96491.35;3752046;77;44727;-22
2021/03/11 14:48:20;;;;;;;0.53;0.50;;;;;;;12.53;84.33;96491.58;3732188;78;43315;-21
2021/03/11 14:53:27;;;;;;;2.05;0.65;;;;;;;12.92;80.71;96501.17;3625074;80;43297;-21
2021/03/11 14:58:35;;;;;;;1.25;0.40;;;;;;;13.18;79.47;96493.84;3790229;78;43272;-21
2021/03/11 15:03:41;;;;;;;1.02;0.82;;;;;;;13.58;75.93;96491.73;3752555;77;43730;-22
2021/03/11 15:08:50;;;;;;;0.98;0.50;;;;;;;13.84;74.51;96489.19;3755915;79;43407;-18
2021/03/11 15:13:58;;;;;;;1.40;0.70;;;;;;;13.06;73.67;96485.63;3754657;79;44015;-17
2021/03/11 15:19:05;;;;;;;1.27;0.60;;;;;;;12.70;74.32;96506.70;3758673;79;44011;-18
2021/03/11 15:24:13;;;;;;;1.45;0.62;;;;;;;12.63;73.00;96490.05;3757904;77;44447;-19
2021/03/11 15:29:20;;;;;;;2.30;0.80;;;;;;;12.58;74.01;96508.78;3759813;78;43688;-19
2021/03/11 15:34:26;;;;;;;2.92;0.60;;;;;;;12.35;70.46;96519.36;3757335;79;44046;-19
2021/03/11 15:39:34;;;;;;;2.10;0.60;;;;;;;11.47;76.37;96508.22;3753639;79;43688;-19
2021/03/11 15:44:42;;;;;;;3.20;0.72;;;;;;;10.69;82.45;96545.73;3753371;79;44113;-19
2021/03/11 15:49:48;;;;;;;2.15;0.62;;;;;;;10.01;93.45;96542.67;3758192;79;44463;-19
2021/03/11 15:54:55;;;;;;;1.92;0.70;;;;;;;8.98;100.00;96580.59;3754559;79;43035;-19
2021/03/11 16:00:02;;;;;;;6.95;1.12;;;;;;;8.11;100.00;96544.98;3751447;79;43146;-20
2021/03/11 16:05:12;;;;;;;1.20;0.50;;;;;;;7.60;100.00;96562.81;3747108;78;26855;-19
2021/03/11 16:10:19;;;;;;;1.07;0.60;;;;;;;7.52;100.00;96562.92;3748553;79;43990;-21
2021/03/11 16:15:26;;;;;;;2.47;0.73;;;;;;;7.51;100.00;96557.24;3747264;78;43294;-19
2021/03/11 16:20:32;;;;;;;2.13;0.60;;;;;;;7.56;100.00;96534.75;3748510;78;73233;-19
2021/03/11 16:25:39;;;;;;;1.45;0.60;;;;;;;7.57;100.00;96518.99;3747371;78;43731;-20
2021/03/11 16:30:45;;;;;;;0.83;0.60;;;;;;;7.67;100.00;96507.95;3749224;78;44526;-20
2021/03/11 16:35:52;;;;;;;2.00;0.62;;;;;;;7.92;100.00;96503.06;3743552;78;43715;-19
2021/03/11 16:40:58;;;;;;;4.33;0.85;;;;;;;8.14;100.00;96513.24;3720629;79;43399;-20
2021/03/11 16:46:06;;;;;;;2.35;0.70;;;;;;;8.42;100.00;96499.03;3747250;78;74226;-19
2021/03/11 16:51:11;;;;;;;2.53;0.60;;;;;;;8.57;100.00;96537.88;3738293;78;43397;-20
2021/03/11 16:56:17;;;;;;;1.30;0.70;;;;;;;8.52;100.00;96532.28;3742226;78;44558;-18
2021/03/11 17:01:23;;;;;;;3.92;1.57;;;;;;;8.46;100.00;96546.42;3738552;79;44028;-19
2021/03/11 17:06:30;;;;;;;3.13;1.60;;;;;;;8.22;100.00;96561.91;3616671;80;43673;-19
2021/03/11 17:11:36;;;;;;;3.00;1.10;;;;;;;7.79;100.00;96563.23;3750947;77;73716;-19
2021/03/11 17:16:43;;;;;;;2.42;1.05;;;;;;;7.58;100.00;96560.84;3743816;78;44149;-18
2021/03/11 17:21:49;;;;;;;4.10;0.90;;;;;;;7.43;100.00;96560.04;3610256;80;73375;-18
2021/03/11 17:26:56;;;;;;;2.13;0.90;;;;;;;7.34;100.00;96566.84;3737656;78;73268;-18
2021/03/11 17:32:04;;;;;;;3.90;1.20;;;;;;;7.23;100.00;96573.50;3759766;77;44446;-19
2021/03/11 17:37:11;;;;;;;2.80;1.50;;;;;;;7.08;100.00;96585.56;3742880;78;44041;-18
2021/03/11 17:42:18;;;;;;;5.30;2.10;;;;;;;6.98;100.00;96584.16;3742163;77;44106;-19
2021/03/11 17:47:24;;;;;;;2.43;1.43;;;;;;;6.94;100.00;96597.08;3729926;78;73257;-19
2021/03/11 17:52:31;;;;;;;4.13;1.83;;;;;;;6.85;100.00;96607.03;3719046;79;44050;-19
2021/03/11 17:57:37;;;;;;;3.87;1.67;;;;;;;6.75;100.00;96612.67;3597284;80;43349;-19
2021/03/11 18:02:44;;;;;;;3.05;1.72;;;;;;;6.73;100.00;96612.02;3609508;80;43385;-18
2021/03/11 18:07:52;;;;;;;2.50;1.70;;;;;;;6.74;100.00;96620.38;3689295;80;73738;-18
2021/03/11 18:12:59;;;;;;;5.40;1.80;;;;;;;6.77;100.00;96626.67;3643116;80;44160;-18
2021/03/11 18:18:07;;;;;;;3.13;1.80;;;;;;;6.74;100.00;96624.87;3668146;80;43363;-18
2021/03/11 18:23:13;;;;;;;4.93;2.13;;;;;;;6.65;100.00;96625.97;3669522;80;44052;-18
2021/03/11 18:28:19;;;;;;;5.12;1.65;;;;;;;6.60;100.00;96629.19;3674340;80;69165;-18
2021/03/11 18:33:26;;;;;;;4.00;1.70;;;;;;;6.50;100.00;96641.47;3668830;79;44018;-18
2021/03/11 18:38:34;;;;;;;3.13;1.60;;;;;;;6.54;100.00;96649.47;3673137;79;44041;-18
2021/03/11 18:43:40;;;;;;;2.50;1.57;;;;;;;6.59;100.00;96651.59;3670225;79;43436;-18
2021/03/11 18:48:46;;;;;;;2.90;1.60;;;;;;;6.63;100.00;96635.00;3676186;80;43248;-18
2021/03/11 18:53:52;;;;;;;3.87;1.60;;;;;;;6.72;100.00;96634.44;3666758;79;43693;-18
2021/03/11 18:58:58;;;;;;;4.53;1.70;;;;;;;6.60;100.00;96621.98;3678659;79;44087;-17
2021/03/11 19:04:05;;;;;;;3.55;2.10;;;;;;;6.65;100.00;96632.66;3632436;81;44023;-18
2021/03/11 19:09:11;;;;;;;2.75;1.50;;;;;;;6.68;100.00;96645.68;3721510;79;43271;-18
2021/03/11 19:14:18;;;;;;;4.40;1.70;;;;;;;6.59;100.00;96666.31;3736863;79;73292;-18
2021/03/11 19:19:23;;;;;;;4.07;1.60;;;;;;;6.57;100.00;96662.49;3641737;80;44459;-18
2021/03/11 19:24:29;;;;;;;6.00;2.30;;;;;;;6.55;100.00;96673.02;3659982;81;43730;-18
2021/03/11 19:29:36;;;;;;;3.13;1.80;;;;;;;6.51;100.00;96684.59;3723340;79;44483;-18
2021/03/11 19:34:42;;;;;;;3.70;2.13;;;;;;;6.48;100.00;96679.10;3687590;79;43470;-18
2021/03/11 19:39:49;;;;;;;2.53;1.40;;;;;;;6.51;100.00;96675.75;3660422;81;44008;-17
2021/03/11 19:44:55;;;;;;;4.13;1.73;;;;;;;6.48;100.00;96675.09;3680563;79;73468;-18
2021/03/11 19:50:01;;;;;;;3.23;1.37;;;;;;;6.36;100.00;96683.20;3690128;79;43325;-18
2021/03/11 19:55:10;;;;;;;3.67;1.60;;;;;;;6.13;100.00;96700.55;3691945;79;43374;-18
2021/03/11 20:00:20;;;;;;;4.00;1.30;;;;;;;6.04;100.00;96702.45;3674384;79;43976;-18
2021/03/11 20:05:26;;;;;;;4.87;1.63;;;;;;;6.19;100.00;96703.02;3719156;78;43668;-18
2021/03/11 20:10:33;;;;;;;3.13;1.60;;;;;;;6.31;100.00;96706.47;3707881;79;43681;-17
2021/03/11 20:15:39;;;;;;;2.77;1.40;;;;;;;6.31;100.00;96705.62;3711363;78;44073;-18
2021/03/11 20:20:45;;;;;;;4.03;1.73;;;;;;;6.60;100.00;96704.92;3707552;78;44527;-27
2021/03/11 20:25:51;;;;;;;5.60;2.30;;;;;;;6.60;100.00;96692.87;3723297;78;43300;-16
2021/03/11 20:30:57;;;;;;;4.57;2.30;;;;;;;6.61;100.00;96691.88;3714710;79;44097;-17
2021/03/11 20:36:04;;;;;;;4.37;2.15;;;;;;;6.59;100.00;96707.27;3738108;78;73253;-17
2021/03/11 20:41:12;;;;;;;3.87;1.70;;;;;;;6.55;100.00;96717.16;3744139;77;73605;-17
2021/03/11 20:46:18;;;;;;;5.87;2.20;;;;;;;6.54;100.00;96725.71;3740720;78;44121;-17
2021/03/11 20:51:25;;;;;;;4.63;1.70;;;;;;;6.60;100.00;96738.88;3732721;77;43754;-17
2021/03/11 20:56:31;;;;;;;2.67;1.30;;;;;;;6.74;100.00;96746.64;3736409;78;43979;-17
2021/03/11 21:01:37;;;;;;;3.50;1.62;;;;;;;6.88;100.00;96749.06;3743614;77;44110;-18
2021/03/11 21:06:45;;;;;;;5.47;1.80;;;;;;;6.99;100.00;96741.95;3751136;79;43294;-18
2021/03/11 21:11:54;;;;;;;5.67;1.90;;;;;;;6.98;100.00;96745.63;3724154;79;43491;-18
2021/03/11 21:17:00;;;;;;;3.70;1.43;;;;;;;6.99;100.00;96735.25;3696400;79;73434;-20
2021/03/11 21:22:07;;;;;;;2.40;1.50;;;;;;;7.01;100.00;96727.84;3661401;81;44068;-18
2021/03/11 21:27:13;;;;;;;5.22;1.57;;;;;;;7.03;100.00;96733.86;3697189;79;43693;-18
2021/03/11 21:32:19;;;;;;;3.10;1.03;;;;;;;7.00;100.00;96754.29;3695544;79;43690;-19
2021/03/11 21:37:25;;;;;;;3.47;1.27;;;;;;;7.03;100.00;96769.19;3654683;81;73562;-19
2021/03/11 21:42:33;;;;;;;4.40;1.40;;;;;;;7.03;100.00;96767.33;3723389;79;42976;-18
2021/03/11 21:47:39;;;;;;;2.67;1.10;;;;;;;7.05;100.00;96759.95;3696736;79;43291;-18
2021/03/11 21:52:46;;;;;;;3.10;1.10;;;;;;;7.05;100.00;96770.66;3675945;80;43009;-19
2021/03/11 21:57:53;;;;;;;3.60;1.23;;;;;;;7.07;100.00;96767.80;3721171;79;73266;-19
2021/03/11 22:03:02;;;;;;;2.20;1.30;;;;;;;6.96;100.00;96783.80;3688649;79;44071;-17
2021/03/11 22:08:09;;;;;;;3.37;1.30;;;;;;;7.00;100.00;96785.08;3657275;81;73279;-19
2021/03/11 22:13:15;;;;;;;2.87;1.20;;;;;;;7.00;100.00;96778.39;3695553;79;43718;-19
2021/03/11 22:18:22;;;;;;;3.37;1.30;;;;;;;7.15;100.00;96794.53;3698819;79;43728;-19
2021/03/11 22:23:27;;;;;;;2.53;1.30;;;;;;;7.17;100.00;96790.31;3693769;78;43493;-19
2021/03/11 22:28:33;;;;;;;1.40;1.10;;;;;;;7.06;100.00;96808.48;3696942;79;44153;-19
2021/03/11 22:33:40;;;;;;;2.90;1.13;;;;;;;6.97;100.00;96816.73;3657875;80;43373;-19
2021/03/11 22:38:46;;;;;;;3.25;1.00;;;;;;;7.01;100.00;96822.89;3684178;79;43488;-19
2021/03/11 22:43:52;;;;;;;1.87;0.80;;;;;;;7.06;100.00;96819.19;3658913;81;44069;-17
2021/03/11 22:48:58;;;;;;;2.73;1.10;;;;;;;7.09;100.00;96822.86;3696722;79;43420;-18
2021/03/11 22:54:05;;;;;;;3.60;1.20;;;;;;;7.07;100.00;96836.07;3696050;79;43462;-17
2021/03/11 22:59:13;;;;;;;3.65;1.15;;;;;;;7.00;100.00;96833.27;3659146;81;44075;-17
2021/03/11 23:04:19;;;;;;;3.83;1.10;;;;;;;7.00;100.00;96837.81;3654405;79;73184;-18
2021/03/11 23:09:27;;;;;;;2.47;1.10;;;;;;;6.85;100.00;96843.92;3722710;78;73241;-18
2021/03/11 23:14:33;;;;;;;2.07;1.10;;;;;;;6.74;100.00;96850.52;3720828;78;44051;-18
2021/03/11 23:19:39;;;;;;;1.90;1.10;;;;;;;6.66;100.00;96865.27;3721224;77;43461;-18
2021/03/11 23:24:45;;;;;;;2.50;1.10;;;;;;;6.68;100.00;96856.56;3706364;78;43369;-17
2021/03/11 23:29:51;;;;;;;3.90;1.20;;;;;;;6.67;100.00;96872.80;3720437;77;43274;-17
2021/03/11 23:34:58;;;;;;;2.87;1.10;;;;;;;6.53;100.00;96881.03;3703439;78;43717;-18
2021/03/11 23:40:05;;;;;;;2.33;1.47;;;;;;;6.50;100.00;96878.22;3705624;79;43301;-19
2021/03/11 23:45:13;;;;;;;2.87;1.13;;;;;;;6.43;100.00;96882.08;3710834;78;43990;-17
2021/03/11 23:50:23;;;;;;;2.40;1.40;;;;;;;6.46;100.00;96887.09;3720877;78;44501;-17
2021/03/11 23:55:29;;;;;;;3.20;1.10;;;;;;;6.48;100.00;96898.95;3671732;80;43693;-18
